Aérodrome :
LOGIN :

S'inscrire | Disclaimer

   EN    FR    IT 

 










Légende :    VFR   VFR Marginal   IFR   IFR Intensif   IFR Très Intensif
Visi : 
Plafond : 
>= 8 km
>= 3000ft
5 à 8 km
1000 à 3000 ft
1500m à 5 km
500 à 1000 ft
800 à 1500m
200 à 500 ft
< 800m
< 200 ft
Symboles :   Orages  Brouillard  Fortes neiges  Fortes précipitations  Vent > 20 kt
SIGMETs :   Divers  Orages  Givrage  Turbulence  Onde Orograph.  Cendres Volcan.







- Altitude de l'aérodrome : 144 ft
- Code IATA : PGF
- Voir les cartes d'approche


LFMP - Perpignan

DERNIER METAR :
  • 181000Z AUTO VRB01KT CAVOK 23/14 Q1013 BECMG 16018G30KT

METARs EXPIRÉS :
  • 180930Z AUTO 04004KT 330V100 CAVOK 21/14 Q1014 BECMG 16018G30KT
  • 180900Z AUTO 03005KT CAVOK 20/15 Q1014 BECMG 16018G30KT
  • 180830Z AUTO 34004KT 310V010 CAVOK 18/15 Q1014 BECMG 16018G30KT

TAF TAF LFMP
Valide du 18 à 09h jusqu'au 19 à 09h UTC


180800Z 1809/1909 VRB05KT CAVOK
BECMG 1809/1812 16018G30KT
BECMG 1815/1818 13013KT
TEMPO 1818/1909 BKN010
TEMPO 1822/1909 4000 SHRA BKN020TCU
PROB40
TEMPO 1822/1909 1200 TSRA BKN018CB
ATIS : +33 4 68 63 75 12
Pas de NOTAMs connus pour ce terrain.



MET'MAP, la Météo Aéronautique d'un coup d'oeil ! - Copyright ORBIFLY Décembre 2007 - Disclaimer

ORBIFLY MET'MAP TEAM :

Programmation & Développement : Alexandra Zaïnal
Conception & Développement : Baudouin d'Aumeries
Co-Programmation & Développement : Marc-Olivier Méhu
Soutien technique & logistique : Manuel Goepfert

Contact : metmap@orbifly.com




SOURCES & CREDITS :

   NOAA